Terminal Aerodrome Forecast
Issued by NWS Upton, NY

Home | Current Version | Previous Version | Text Only | Print | Product List | Glossary On
Versions: 1 2 3 4 5 6 7 8 9 10 11 12 13 14 15 16 17 18 19 20 21 22 23 24 25 26 27 28
000
FTUS41 KOKX 241100
TAFEWR
TAF
KEWR 241139Z 2412/2518 18020G29KT 6SM -SHRA BR OVC009 WS020/20045KT
     FM241500 20015G28KT P6SM BKN015
     FM241900 21018G32KT P6SM SCT015 SCT250
     FM250200 23012G22KT P6SM SCT020 BKN250
     FM250900 26009KT P6SM FEW020 BKN250
     FM251400 27013G21KT P6SM BKN250=

USA.gov is the U.S. government's official web portal to all federal, state and local government web resources and services.